sensor_id;sensor_type;location;lat;lon;timestamp;temperature;humidity
1103;DHT22;538;42.654;23.376;2022-10-23T00:06:28;13.30;27.20
1103;DHT22;538;42.654;23.376;2022-10-23T00:21:48;13.30;25.60
1103;DHT22;538;42.654;23.376;2022-10-23T00:57:58;13.70;25.20
1103;DHT22;538;42.654;23.376;2022-10-23T01:13:26;12.90;28.70
1103;DHT22;538;42.654;23.376;2022-10-23T01:16:04;12.80;29.80
1103;DHT22;538;42.654;23.376;2022-10-23T01:18:37;12.10;28.90
1103;DHT22;538;42.654;23.376;2022-10-23T01:21:09;12.60;30.60
1103;DHT22;538;42.654;23.376;2022-10-23T01:28:53;12.00;33.50
1103;DHT22;538;42.654;23.376;2022-10-23T01:31:24;12.00;34.00
1103;DHT22;538;42.654;23.376;2022-10-23T01:36:31;11.90;36.40
1103;DHT22;538;42.654;23.376;2022-10-23T01:39:05;11.70;37.20
1103;DHT22;538;42.654;23.376;2022-10-23T01:44:16;11.60;39.00
1103;DHT22;538;42.654;23.376;2022-10-23T01:46:46;11.30;39.30
1103;DHT22;538;42.654;23.376;2022-10-23T01:49:16;11.40;40.80
1103;DHT22;538;42.654;23.376;2022-10-23T01:51:49;11.30;42.50
1103;DHT22;538;42.654;23.376;2022-10-23T01:54:22;11.00;44.60
1103;DHT22;538;42.654;23.376;2022-10-23T01:56:50;11.00;45.10
1103;DHT22;538;42.654;23.376;2022-10-23T01:59:24;10.40;45.00
1103;DHT22;538;42.654;23.376;2022-10-23T02:01:55;10.20;44.40
1103;DHT22;538;42.654;23.376;2022-10-23T02:04:28;9.60;46.20
1103;DHT22;538;42.654;23.376;2022-10-23T02:06:57;11.10;46.50
1103;DHT22;538;42.654;23.376;2022-10-23T02:12:06;11.00;47.30
1103;DHT22;538;42.654;23.376;2022-10-23T02:14:43;10.00;45.70
1103;DHT22;538;42.654;23.376;2022-10-23T02:17:15;10.20;45.00
1103;DHT22;538;42.654;23.376;2022-10-23T02:19:56;10.70;45.40
1103;DHT22;538;42.654;23.376;2022-10-23T02:22:29;11.40;44.50
1103;DHT22;538;42.654;23.376;2022-10-23T02:25:01;11.40;43.30
1103;DHT22;538;42.654;23.376;2022-10-23T02:27:36;12.00;43.20
1103;DHT22;538;42.654;23.376;2022-10-23T02:30:09;11.00;41.20
1103;DHT22;538;42.654;23.376;2022-10-23T02:32:44;11.00;41.50
1103;DHT22;538;42.654;23.376;2022-10-23T02:35:15;12.40;43.20
1103;DHT22;538;42.654;23.376;2022-10-23T02:37:50;11.50;42.60
1103;DHT22;538;42.654;23.376;2022-10-23T02:40:18;11.50;43.00
1103;DHT22;538;42.654;23.376;2022-10-23T02:45:29;11.40;44.10
1103;DHT22;538;42.654;23.376;2022-10-23T02:48:27;10.40;43.80
1103;DHT22;538;42.654;23.376;2022-10-23T02:58:45;11.80;39.70
1103;DHT22;538;42.654;23.376;2022-10-23T03:11:37;12.30;34.80
1103;DHT22;538;42.654;23.376;2022-10-23T03:16:40;12.50;32.70
1103;DHT22;538;42.654;23.376;2022-10-23T03:32:09;12.70;30.00
1103;DHT22;538;42.654;23.376;2022-10-23T04:23:35;13.30;21.00
1103;DHT22;538;42.654;23.376;2022-10-23T04:28:32;13.70;19.90
1103;DHT22;538;42.654;23.376;2022-10-23T04:36:06;13.90;20.60
1103;DHT22;538;42.654;23.376;2022-10-23T04:38:35;12.20;18.70
1103;DHT22;538;42.654;23.376;2022-10-23T04:41:02;14.00;19.40
1103;DHT22;538;42.654;23.376;2022-10-23T04:43:29;14.00;18.70
1103;DHT22;538;42.654;23.376;2022-10-23T04:45:57;14.00;18.90
1103;DHT22;538;42.654;23.376;2022-10-23T04:48:24;13.30;18.20
1103;DHT22;538;42.654;23.376;2022-10-23T04:50:56;14.00;18.60
1103;DHT22;538;42.654;23.376;2022-10-23T04:53:23;13.90;18.70
1103;DHT22;538;42.654;23.376;2022-10-23T04:59:31;12.40;18.20
1103;DHT22;538;42.654;23.376;2022-10-23T05:07:11;13.90;18.80
1103;DHT22;538;42.654;23.376;2022-10-23T05:09:38;13.90;19.10
1103;DHT22;538;42.654;23.376;2022-10-23T05:12:06;13.80;19.00
1103;DHT22;538;42.654;23.376;2022-10-23T05:17:14;13.90;19.30
1103;DHT22;538;42.654;23.376;2022-10-23T05:27:28;13.90;18.50
1103;DHT22;538;42.654;23.376;2022-10-23T05:29:56;14.00;18.20
1103;DHT22;538;42.654;23.376;2022-10-23T05:32:26;14.00;19.00
1103;DHT22;538;42.654;23.376;2022-10-23T05:37:33;14.40;18.10
1103;DHT22;538;42.654;23.376;2022-10-23T05:42:40;14.70;18.10
1103;DHT22;538;42.654;23.376;2022-10-23T05:50:20;14.80;18.20
1103;DHT22;538;42.654;23.376;2022-10-23T05:53:12;14.70;18.10
1103;DHT22;538;42.654;23.376;2022-10-23T05:56:11;14.70;19.10
1103;DHT22;538;42.654;23.376;2022-10-23T05:58:52;13.10;19.00
1103;DHT22;538;42.654;23.376;2022-10-23T06:01:19;14.60;20.50
1103;DHT22;538;42.654;23.376;2022-10-23T06:03:48;14.50;20.40
1103;DHT22;538;42.654;23.376;2022-10-23T06:06:49;14.50;20.70
1103;DHT22;538;42.654;23.376;2022-10-23T06:09:23;13.90;20.00
1103;DHT22;538;42.654;23.376;2022-10-23T06:12:09;14.40;21.50
1103;DHT22;538;42.654;23.376;2022-10-23T06:14:48;14.60;22.00
1103;DHT22;538;42.654;23.376;2022-10-23T06:17:20;14.80;21.80
1103;DHT22;538;42.654;23.376;2022-10-23T06:20:18;14.90;21.20
1103;DHT22;538;42.654;23.376;2022-10-23T06:23:22;15.10;21.90
1103;DHT22;538;42.654;23.376;2022-10-23T06:26:16;15.20;21.90
1103;DHT22;538;42.654;23.376;2022-10-23T06:28:46;15.40;21.60
1103;DHT22;538;42.654;23.376;2022-10-23T06:31:19;15.60;21.90
1103;DHT22;538;42.654;23.376;2022-10-23T06:48:42;16.10;29.60
1103;DHT22;538;42.654;23.376;2022-10-23T06:51:12;16.20;30.00
1103;DHT22;538;42.654;23.376;2022-10-23T06:53:54;16.20;30.40
1103;DHT22;538;42.654;23.376;2022-10-23T07:02:00;16.50;30.40
1103;DHT22;538;42.654;23.376;2022-10-23T07:04:32;16.50;30.40
1103;DHT22;538;42.654;23.376;2022-10-23T07:10:44;16.50;29.90
1103;DHT22;538;42.654;23.376;2022-10-23T07:13:12;14.90;28.20
1103;DHT22;538;42.654;23.376;2022-10-23T07:15:43;15.00;28.00
1103;DHT22;538;42.654;23.376;2022-10-23T07:18:30;15.10;27.50
1103;DHT22;538;42.654;23.376;2022-10-23T07:21:29;16.80;28.10
1103;DHT22;538;42.654;23.376;2022-10-23T07:23:57;16.80;27.50
1103;DHT22;538;42.654;23.376;2022-10-23T07:29:01;16.90;27.60
1103;DHT22;538;42.654;23.376;2022-10-23T07:31:28;17.00;28.00
1103;DHT22;538;42.654;23.376;2022-10-23T07:33:56;17.00;27.60
1103;DHT22;538;42.654;23.376;2022-10-23T07:36:53;17.10;26.60
1103;DHT22;538;42.654;23.376;2022-10-23T07:39:22;17.70;26.00
1103;DHT22;538;42.654;23.376;2022-10-23T07:41:56;17.50;24.30
1103;DHT22;538;42.654;23.376;2022-10-23T07:44:29;17.40;24.20
1103;DHT22;538;42.654;23.376;2022-10-23T07:53:06;17.90;21.60
1103;DHT22;538;42.654;23.376;2022-10-23T07:56:00;18.00;21.40
1103;DHT22;538;42.654;23.376;2022-10-23T07:58:39;18.10;21.50
1103;DHT22;538;42.654;23.376;2022-10-23T08:01:27;17.40;20.80
1103;DHT22;538;42.654;23.376;2022-10-23T08:04:04;18.40;21.10
1103;DHT22;538;42.654;23.376;2022-10-23T08:07:06;18.40;19.80
1103;DHT22;538;42.654;23.376;2022-10-23T08:15:28;18.90;18.20
1103;DHT22;538;42.654;23.376;2022-10-23T08:18:47;19.00;18.20
1103;DHT22;538;42.654;23.376;2022-10-23T08:21:35;19.30;18.40
1103;DHT22;538;42.654;23.376;2022-10-23T08:24:10;19.60;17.50
1103;DHT22;538;42.654;23.376;2022-10-23T08:26:38;20.10;16.50
1103;DHT22;538;42.654;23.376;2022-10-23T08:29:09;20.30;16.60
1103;DHT22;538;42.654;23.376;2022-10-23T08:31:38;20.40;16.00
1103;DHT22;538;42.654;23.376;2022-10-23T08:34:05;20.50;16.20
1103;DHT22;538;42.654;23.376;2022-10-23T08:36:32;20.80;15.50
1103;DHT22;538;42.654;23.376;2022-10-23T08:39:01;21.20;13.60
1103;DHT22;538;42.654;23.376;2022-10-23T08:41:31;21.40;13.40
1103;DHT22;538;42.654;23.376;2022-10-23T08:44:04;21.30;13.40
1103;DHT22;538;42.654;23.376;2022-10-23T08:46:38;21.60;14.10
1103;DHT22;538;42.654;23.376;2022-10-23T08:49:21;21.90;13.70
1103;DHT22;538;42.654;23.376;2022-10-23T08:51:54;21.60;13.30
1103;DHT22;538;42.654;23.376;2022-10-23T08:54:27;21.60;13.40
1103;DHT22;538;42.654;23.376;2022-10-23T08:57:03;21.70;13.00
1103;DHT22;538;42.654;23.376;2022-10-23T08:59:38;21.90;13.20
1103;DHT22;538;42.654;23.376;2022-10-23T09:02:14;21.80;12.90
1103;DHT22;538;42.654;23.376;2022-10-23T09:04:45;22.00;12.80
1103;DHT22;538;42.654;23.376;2022-10-23T09:07:20;22.30;12.00
1103;DHT22;538;42.654;23.376;2022-10-23T09:10:01;22.30;11.80
1103;DHT22;538;42.654;23.376;2022-10-23T09:12:30;22.20;11.90
1103;DHT22;538;42.654;23.376;2022-10-23T09:15:19;22.10;11.90
1103;DHT22;538;42.654;23.376;2022-10-23T09:17:54;22.30;12.20
1103;DHT22;538;42.654;23.376;2022-10-23T09:20:23;22.60;11.40
1103;DHT22;538;42.654;23.376;2022-10-23T09:22:54;22.60;11.00
1103;DHT22;538;42.654;23.376;2022-10-23T09:25:24;23.00;10.50
1103;DHT22;538;42.654;23.376;2022-10-23T09:27:53;23.20;10.60
1103;DHT22;538;42.654;23.376;2022-10-23T09:30:26;23.60;10.40
1103;DHT22;538;42.654;23.376;2022-10-23T09:32:54;23.60;9.50
1103;DHT22;538;42.654;23.376;2022-10-23T09:35:24;23.70;8.70
1103;DHT22;538;42.654;23.376;2022-10-23T09:37:52;23.70;8.40
1103;DHT22;538;42.654;23.376;2022-10-23T09:40:26;23.60;9.00
1103;DHT22;538;42.654;23.376;2022-10-23T09:42:57;23.70;9.10
1103;DHT22;538;42.654;23.376;2022-10-23T09:45:27;23.70;8.80
1103;DHT22;538;42.654;23.376;2022-10-23T09:48:10;24.00;8.20
1103;DHT22;538;42.654;23.376;2022-10-23T09:50:49;24.10;7.80
1103;DHT22;538;42.654;23.376;2022-10-23T09:53:21;24.50;7.40
1103;DHT22;538;42.654;23.376;2022-10-23T09:55:52;24.80;7.40
1103;DHT22;538;42.654;23.376;2022-10-23T09:58:28;25.10;5.90
1103;DHT22;538;42.654;23.376;2022-10-23T10:00:56;25.50;5.40
1103;DHT22;538;42.654;23.376;2022-10-23T10:03:24;25.50;4.70
1103;DHT22;538;42.654;23.376;2022-10-23T10:05:57;25.50;4.80
1103;DHT22;538;42.654;23.376;2022-10-23T10:08:31;25.30;4.20
1103;DHT22;538;42.654;23.376;2022-10-23T10:11:04;25.90;4.80
1103;DHT22;538;42.654;23.376;2022-10-23T10:16:42;27.10;3.00
1103;DHT22;538;42.654;23.376;2022-10-23T10:19:28;27.50;1.10
1103;DHT22;538;42.654;23.376;2022-10-23T10:22:04;27.80;1.00
1103;DHT22;538;42.654;23.376;2022-10-23T10:24:40;27.60;1.00
1103;DHT22;538;42.654;23.376;2022-10-23T10:27:18;27.50;1.00
1103;DHT22;538;42.654;23.376;2022-10-23T10:30:00;27.70;1.00
1103;DHT22;538;42.654;23.376;2022-10-23T10:32:36;28.40;1.00
1103;DHT22;538;42.654;23.376;2022-10-23T10:35:35;28.50;1.00
1103;DHT22;538;42.654;23.376;2022-10-23T10:38:25;29.00;1.00
1103;DHT22;538;42.654;23.376;2022-10-23T10:41:15;29.40;1.00
1103;DHT22;538;42.654;23.376;2022-10-23T10:43:57;30.80;1.00
1103;DHT22;538;42.654;23.376;2022-10-23T10:46:31;31.00;1.00
1103;DHT22;538;42.654;23.376;2022-10-23T10:49:06;30.90;1.00
1103;DHT22;538;42.654;23.376;2022-10-23T10:51:44;31.20;1.00
1103;DHT22;538;42.654;23.376;2022-10-23T10:54:25;31.00;1.00
1103;DHT22;538;42.654;23.376;2022-10-23T10:56:55;30.80;1.00
1103;DHT22;538;42.654;23.376;2022-10-23T10:59:27;30.30;1.00
1103;DHT22;538;42.654;23.376;2022-10-23T11:01:58;31.00;1.00
1103;DHT22;538;42.654;23.376;2022-10-23T11:04:33;31.80;1.00
1103;DHT22;538;42.654;23.376;2022-10-23T11:07:07;32.10;1.00
1103;DHT22;538;42.654;23.376;2022-10-23T11:09:37;32.70;1.00
1103;DHT22;538;42.654;23.376;2022-10-23T11:12:05;32.10;1.00
1103;DHT22;538;42.654;23.376;2022-10-23T11:14:33;32.70;1.00
1103;DHT22;538;42.654;23.376;2022-10-23T11:17:06;33.20;1.00
1103;DHT22;538;42.654;23.376;2022-10-23T11:19:39;32.50;1.00
1103;DHT22;538;42.654;23.376;2022-10-23T11:22:14;31.80;1.00
1103;DHT22;538;42.654;23.376;2022-10-23T11:25:24;32.20;1.00
1103;DHT22;538;42.654;23.376;2022-10-23T11:28:06;32.80;1.00
1103;DHT22;538;42.654;23.376;2022-10-23T11:30:46;32.70;1.00
1103;DHT22;538;42.654;23.376;2022-10-23T11:33:51;31.60;1.00
1103;DHT22;538;42.654;23.376;2022-10-23T11:36:42;31.30;1.00
1103;DHT22;538;42.654;23.376;2022-10-23T11:39:20;30.40;1.00
1103;DHT22;538;42.654;23.376;2022-10-23T11:41:51;30.90;1.00
1103;DHT22;538;42.654;23.376;2022-10-23T11:44:26;31.50;1.00
1103;DHT22;538;42.654;23.376;2022-10-23T11:47:04;31.50;1.00
1103;DHT22;538;42.654;23.376;2022-10-23T11:49:31;31.40;1.00
1103;DHT22;538;42.654;23.376;2022-10-23T11:51:59;31.40;1.00
1103;DHT22;538;42.654;23.376;2022-10-23T11:54:28;31.20;1.00
1103;DHT22;538;42.654;23.376;2022-10-23T11:57:09;30.80;1.00
1103;DHT22;538;42.654;23.376;2022-10-23T11:59:49;30.50;1.00
1103;DHT22;538;42.654;23.376;2022-10-23T12:02:32;30.40;1.00
1103;DHT22;538;42.654;23.376;2022-10-23T12:05:05;30.50;1.00
1103;DHT22;538;42.654;23.376;2022-10-23T12:07:35;30.20;1.00
1103;DHT22;538;42.654;23.376;2022-10-23T12:10:15;30.60;1.00
1103;DHT22;538;42.654;23.376;2022-10-23T12:12:54;30.70;1.00
1103;DHT22;538;42.654;23.376;2022-10-23T12:15:22;31.20;1.00
1103;DHT22;538;42.654;23.376;2022-10-23T12:17:51;31.10;1.00
1103;DHT22;538;42.654;23.376;2022-10-23T12:20:30;31.00;1.00
1103;DHT22;538;42.654;23.376;2022-10-23T12:26:22;30.00;1.00
1103;DHT22;538;42.654;23.376;2022-10-23T12:29:00;29.90;1.00
1103;DHT22;538;42.654;23.376;2022-10-23T12:31:39;29.70;1.00
1103;DHT22;538;42.654;23.376;2022-10-23T12:34:17;28.90;1.00
1103;DHT22;538;42.654;23.376;2022-10-23T12:37:04;29.40;1.00
1103;DHT22;538;42.654;23.376;2022-10-23T12:39:36;30.30;1.00
1103;DHT22;538;42.654;23.376;2022-10-23T12:42:14;30.90;1.00
1103;DHT22;538;42.654;23.376;2022-10-23T12:44:41;31.00;1.00
1103;DHT22;538;42.654;23.376;2022-10-23T12:47:15;30.00;1.00
1103;DHT22;538;42.654;23.376;2022-10-23T12:49:47;30.10;1.00
1103;DHT22;538;42.654;23.376;2022-10-23T12:52:16;29.90;1.00
1103;DHT22;538;42.654;23.376;2022-10-23T12:54:44;29.90;1.00
1103;DHT22;538;42.654;23.376;2022-10-23T12:57:20;30.30;1.00
1103;DHT22;538;42.654;23.376;2022-10-23T12:59:48;29.40;1.00
1103;DHT22;538;42.654;23.376;2022-10-23T13:02:24;29.50;1.00
1103;DHT22;538;42.654;23.376;2022-10-23T13:04:54;29.10;1.00
1103;DHT22;538;42.654;23.376;2022-10-23T13:07:25;28.40;1.00
1103;DHT22;538;42.654;23.376;2022-10-23T13:09:53;28.50;1.00
1103;DHT22;538;42.654;23.376;2022-10-23T13:12:24;27.70;1.00
1103;DHT22;538;42.654;23.376;2022-10-23T13:14:57;27.40;1.00
1103;DHT22;538;42.654;23.376;2022-10-23T13:17:38;27.00;1.00
1103;DHT22;538;42.654;23.376;2022-10-23T13:20:10;27.00;1.00
1103;DHT22;538;42.654;23.376;2022-10-23T13:22:46;26.80;1.00
1103;DHT22;538;42.654;23.376;2022-10-23T13:25:21;26.30;1.00
1103;DHT22;538;42.654;23.376;2022-10-23T13:28:17;26.40;1.00
1103;DHT22;538;42.654;23.376;2022-10-23T13:30:57;26.40;1.00
1103;DHT22;538;42.654;23.376;2022-10-23T13:33:32;26.30;1.00
1103;DHT22;538;42.654;23.376;2022-10-23T13:36:01;26.20;1.00
1103;DHT22;538;42.654;23.376;2022-10-23T13:38:30;26.20;1.00
1103;DHT22;538;42.654;23.376;2022-10-23T13:40:59;26.20;1.00
1103;DHT22;538;42.654;23.376;2022-10-23T13:43:28;26.10;1.00
1103;DHT22;538;42.654;23.376;2022-10-23T13:45:56;26.10;1.00
1103;DHT22;538;42.654;23.376;2022-10-23T13:48:23;25.60;1.00
1103;DHT22;538;42.654;23.376;2022-10-23T13:50:51;25.50;1.00
1103;DHT22;538;42.654;23.376;2022-10-23T13:53:19;25.50;1.00
1103;DHT22;538;42.654;23.376;2022-10-23T13:55:49;25.30;1.00
1103;DHT22;538;42.654;23.376;2022-10-23T13:58:17;25.20;1.00
1103;DHT22;538;42.654;23.376;2022-10-23T14:00:46;25.20;1.00
1103;DHT22;538;42.654;23.376;2022-10-23T14:03:15;24.60;1.00
1103;DHT22;538;42.654;23.376;2022-10-23T14:05:45;24.10;1.00
1103;DHT22;538;42.654;23.376;2022-10-23T14:08:12;24.00;1.00
1103;DHT22;538;42.654;23.376;2022-10-23T14:10:39;23.60;1.00
1103;DHT22;538;42.654;23.376;2022-10-23T14:13:06;23.50;1.00
1103;DHT22;538;42.654;23.376;2022-10-23T14:15:33;23.40;1.00
1103;DHT22;538;42.654;23.376;2022-10-23T14:18:03;23.30;1.00
1103;DHT22;538;42.654;23.376;2022-10-23T14:20:30;23.10;1.40
1103;DHT22;538;42.654;23.376;2022-10-23T14:22:58;22.90;1.70
1103;DHT22;538;42.654;23.376;2022-10-23T14:25:25;22.90;1.90
1103;DHT22;538;42.654;23.376;2022-10-23T14:27:52;22.80;2.00
1103;DHT22;538;42.654;23.376;2022-10-23T14:30:19;22.70;2.30
1103;DHT22;538;42.654;23.376;2022-10-23T14:32:46;22.60;2.80
1103;DHT22;538;42.654;23.376;2022-10-23T14:35:16;22.40;3.00
1103;DHT22;538;42.654;23.376;2022-10-23T14:37:43;22.30;3.60
1103;DHT22;538;42.654;23.376;2022-10-23T14:40:10;22.00;3.30
1103;DHT22;538;42.654;23.376;2022-10-23T14:42:37;21.90;3.70
1103;DHT22;538;42.654;23.376;2022-10-23T14:45:07;21.90;4.10
1103;DHT22;538;42.654;23.376;2022-10-23T14:47:34;21.90;4.70
1103;DHT22;538;42.654;23.376;2022-10-23T14:50:02;21.80;4.60
1103;DHT22;538;42.654;23.376;2022-10-23T14:52:30;21.90;5.00
1103;DHT22;538;42.654;23.376;2022-10-23T14:55:02;21.90;5.20
1103;DHT22;538;42.654;23.376;2022-10-23T14:57:29;22.00;5.50
1103;DHT22;538;42.654;23.376;2022-10-23T14:59:56;21.90;5.60
1103;DHT22;538;42.654;23.376;2022-10-23T15:02:24;21.70;5.40
1103;DHT22;538;42.654;23.376;2022-10-23T15:04:51;21.70;5.60
1103;DHT22;538;42.654;23.376;2022-10-23T15:07:18;21.40;6.40
1103;DHT22;538;42.654;23.376;2022-10-23T15:09:47;21.20;6.90
1103;DHT22;538;42.654;23.376;2022-10-23T15:12:16;21.10;7.10
1103;DHT22;538;42.654;23.376;2022-10-23T15:14:43;21.00;7.40
1103;DHT22;538;42.654;23.376;2022-10-23T15:17:11;21.00;7.50
1103;DHT22;538;42.654;23.376;2022-10-23T15:19:38;20.80;7.60
1103;DHT22;538;42.654;23.376;2022-10-23T15:22:05;20.60;7.90
1103;DHT22;538;42.654;23.376;2022-10-23T15:24:32;20.50;8.20
1103;DHT22;538;42.654;23.376;2022-10-23T15:27:00;20.50;8.50
1103;DHT22;538;42.654;23.376;2022-10-23T15:29:28;20.40;8.60
1103;DHT22;538;42.654;23.376;2022-10-23T15:31:56;20.30;8.80
1103;DHT22;538;42.654;23.376;2022-10-23T15:34:25;20.20;9.20
1103;DHT22;538;42.654;23.376;2022-10-23T15:36:57;20.10;9.40
1103;DHT22;538;42.654;23.376;2022-10-23T15:39:25;19.50;9.30
1103;DHT22;538;42.654;23.376;2022-10-23T15:41:55;19.90;10.10
1103;DHT22;538;42.654;23.376;2022-10-23T15:44:25;19.80;10.20
1103;DHT22;538;42.654;23.376;2022-10-23T15:46:53;19.70;10.60
1103;DHT22;538;42.654;23.376;2022-10-23T15:49:22;19.70;10.20
1103;DHT22;538;42.654;23.376;2022-10-23T15:51:50;19.60;11.20
1103;DHT22;538;42.654;23.376;2022-10-23T15:54:19;19.50;10.50
1103;DHT22;538;42.654;23.376;2022-10-23T15:56:47;19.30;10.80
1103;DHT22;538;42.654;23.376;2022-10-23T15:59:15;19.30;10.90
1103;DHT22;538;42.654;23.376;2022-10-23T16:01:44;19.20;11.10
1103;DHT22;538;42.654;23.376;2022-10-23T16:04:11;19.20;11.30
1103;DHT22;538;42.654;23.376;2022-10-23T16:06:39;19.20;11.90
1103;DHT22;538;42.654;23.376;2022-10-23T16:09:06;19.10;11.60
1103;DHT22;538;42.654;23.376;2022-10-23T16:11:37;19.00;11.70
1103;DHT22;538;42.654;23.376;2022-10-23T16:14:13;18.90;11.90
1103;DHT22;538;42.654;23.376;2022-10-23T16:19:13;18.80;11.60
1103;DHT22;538;42.654;23.376;2022-10-23T16:21:43;18.80;12.20
1103;DHT22;538;42.654;23.376;2022-10-23T16:24:15;18.70;12.00
1103;DHT22;538;42.654;23.376;2022-10-23T16:26:42;18.80;13.00
1103;DHT22;538;42.654;23.376;2022-10-23T16:29:15;18.90;12.50
1103;DHT22;538;42.654;23.376;2022-10-23T16:31:45;18.80;12.20
1103;DHT22;538;42.654;23.376;2022-10-23T16:34:14;18.70;12.30
1103;DHT22;538;42.654;23.376;2022-10-23T16:36:41;18.70;12.50
1103;DHT22;538;42.654;23.376;2022-10-23T16:39:10;18.60;12.50
1103;DHT22;538;42.654;23.376;2022-10-23T16:41:38;18.60;12.60
1103;DHT22;538;42.654;23.376;2022-10-23T16:44:06;18.50;12.60
1103;DHT22;538;42.654;23.376;2022-10-23T16:46:35;18.50;12.80
1103;DHT22;538;42.654;23.376;2022-10-23T16:49:06;18.40;12.60
1103;DHT22;538;42.654;23.376;2022-10-23T16:51:38;18.40;12.80
1103;DHT22;538;42.654;23.376;2022-10-23T16:54:06;18.30;12.90
1103;DHT22;538;42.654;23.376;2022-10-23T16:56:35;18.30;12.80
1103;DHT22;538;42.654;23.376;2022-10-23T16:59:02;18.20;13.00
1103;DHT22;538;42.654;23.376;2022-10-23T17:01:31;18.00;13.10
1103;DHT22;538;42.654;23.376;2022-10-23T17:03:59;17.90;13.40
1103;DHT22;538;42.654;23.376;2022-10-23T17:07:01;18.00;13.60
1103;DHT22;538;42.654;23.376;2022-10-23T17:09:46;18.00;13.60
1103;DHT22;538;42.654;23.376;2022-10-23T17:12:15;19.20;14.70
1103;DHT22;538;42.654;23.376;2022-10-23T17:14:43;17.90;14.00
1103;DHT22;538;42.654;23.376;2022-10-23T17:17:12;17.80;14.00
1103;DHT22;538;42.654;23.376;2022-10-23T17:19:42;17.70;14.20
1103;DHT22;538;42.654;23.376;2022-10-23T17:22:16;17.80;14.40
1103;DHT22;538;42.654;23.376;2022-10-23T17:24:46;17.30;14.10
1103;DHT22;538;42.654;23.376;2022-10-23T17:27:14;17.70;14.70
1103;DHT22;538;42.654;23.376;2022-10-23T17:29:41;17.70;14.80
1103;DHT22;538;42.654;23.376;2022-10-23T17:32:18;17.70;14.80
1103;DHT22;538;42.654;23.376;2022-10-23T17:34:48;17.70;14.80
1103;DHT22;538;42.654;23.376;2022-10-23T17:37:21;17.50;14.60
1103;DHT22;538;42.654;23.376;2022-10-23T17:39:48;17.70;14.80
1103;DHT22;538;42.654;23.376;2022-10-23T17:42:16;17.70;15.60
1103;DHT22;538;42.654;23.376;2022-10-23T17:44:43;17.70;14.70
1103;DHT22;538;42.654;23.376;2022-10-23T17:47:10;17.60;14.50
1103;DHT22;538;42.654;23.376;2022-10-23T17:49:39;17.60;14.40
1103;DHT22;538;42.654;23.376;2022-10-23T17:52:25;17.60;14.60
1103;DHT22;538;42.654;23.376;2022-10-23T17:54:54;17.50;14.30
1103;DHT22;538;42.654;23.376;2022-10-23T17:57:24;17.60;14.40
1103;DHT22;538;42.654;23.376;2022-10-23T17:59:53;17.40;14.30
1103;DHT22;538;42.654;23.376;2022-10-23T18:02:23;17.60;14.70
1103;DHT22;538;42.654;23.376;2022-10-23T18:04:50;17.50;14.40
1103;DHT22;538;42.654;23.376;2022-10-23T18:07:21;17.50;14.70
1103;DHT22;538;42.654;23.376;2022-10-23T18:09:53;17.50;14.60
1103;DHT22;538;42.654;23.376;2022-10-23T18:12:23;17.50;14.60
1103;DHT22;538;42.654;23.376;2022-10-23T18:14:58;17.50;14.70
1103;DHT22;538;42.654;23.376;2022-10-23T18:17:27;17.50;14.70
1103;DHT22;538;42.654;23.376;2022-10-23T18:19:57;17.50;14.60
1103;DHT22;538;42.654;23.376;2022-10-23T18:22:25;17.50;14.70
1103;DHT22;538;42.654;23.376;2022-10-23T18:24:58;17.50;14.80
1103;DHT22;538;42.654;23.376;2022-10-23T18:27:28;17.50;14.70
1103;DHT22;538;42.654;23.376;2022-10-23T18:32:25;17.60;14.40
1103;DHT22;538;42.654;23.376;2022-10-23T18:34:52;17.50;15.30
1103;DHT22;538;42.654;23.376;2022-10-23T18:37:21;17.60;15.60
1103;DHT22;538;42.654;23.376;2022-10-23T18:39:48;17.60;15.30
1103;DHT22;538;42.654;23.376;2022-10-23T18:42:25;17.50;15.30
1103;DHT22;538;42.654;23.376;2022-10-23T18:44:57;17.50;16.10
1103;DHT22;538;42.654;23.376;2022-10-23T18:47:27;17.40;16.00
1103;DHT22;538;42.654;23.376;2022-10-23T18:49:55;17.30;16.40
1103;DHT22;538;42.654;23.376;2022-10-23T18:52:31;17.10;17.00
1103;DHT22;538;42.654;23.376;2022-10-23T18:55:10;17.00;17.50
1103;DHT22;538;42.654;23.376;2022-10-23T18:58:16;16.80;17.30
1103;DHT22;538;42.654;23.376;2022-10-23T19:00:54;16.60;17.50
1103;DHT22;538;42.654;23.376;2022-10-23T19:03:32;16.30;17.80
1103;DHT22;538;42.654;23.376;2022-10-23T19:06:17;16.20;18.50
1103;DHT22;538;42.654;23.376;2022-10-23T19:08:47;16.10;19.20
1103;DHT22;538;42.654;23.376;2022-10-23T19:11:45;15.70;18.90
1103;DHT22;538;42.654;23.376;2022-10-23T19:14:44;16.00;19.70
1103;DHT22;538;42.654;23.376;2022-10-23T19:20:29;16.60;19.10
1103;DHT22;538;42.654;23.376;2022-10-23T19:23:05;15.60;18.60
1103;DHT22;538;42.654;23.376;2022-10-23T19:25:35;15.60;19.20
1103;DHT22;538;42.654;23.376;2022-10-23T19:28:13;15.60;19.40
1103;DHT22;538;42.654;23.376;2022-10-23T19:30:47;15.50;19.70
1103;DHT22;538;42.654;23.376;2022-10-23T19:33:14;15.60;19.90
1103;DHT22;538;42.654;23.376;2022-10-23T19:35:43;14.70;19.20
1103;DHT22;538;42.654;23.376;2022-10-23T19:38:12;15.70;19.80
1103;DHT22;538;42.654;23.376;2022-10-23T19:40:41;15.70;20.00
1103;DHT22;538;42.654;23.376;2022-10-23T19:43:08;15.10;19.60
1103;DHT22;538;42.654;23.376;2022-10-23T19:45:40;15.80;19.70
1103;DHT22;538;42.654;23.376;2022-10-23T19:48:14;15.80;19.90
1103;DHT22;538;42.654;23.376;2022-10-23T19:50:53;15.80;20.50
1103;DHT22;538;42.654;23.376;2022-10-23T19:54:08;15.80;19.90
1103;DHT22;538;42.654;23.376;2022-10-23T19:56:51;15.10;18.90
1103;DHT22;538;42.654;23.376;2022-10-23T19:59:23;15.50;18.70
1103;DHT22;538;42.654;23.376;2022-10-23T20:02:03;16.00;18.50
1103;DHT22;538;42.654;23.376;2022-10-23T20:04:57;15.90;18.70
1103;DHT22;538;42.654;23.376;2022-10-23T20:07:30;15.80;18.30
1103;DHT22;538;42.654;23.376;2022-10-23T20:10:19;15.70;19.30
1103;DHT22;538;42.654;23.376;2022-10-23T20:13:05;15.70;20.00
1103;DHT22;538;42.654;23.376;2022-10-23T20:15:41;15.20;20.00
1103;DHT22;538;42.654;23.376;2022-10-23T20:18:22;15.70;20.20
1103;DHT22;538;42.654;23.376;2022-10-23T20:21:00;16.60;20.50
1103;DHT22;538;42.654;23.376;2022-10-23T20:24:07;15.60;20.70
1103;DHT22;538;42.654;23.376;2022-10-23T20:26:50;15.50;20.40
1103;DHT22;538;42.654;23.376;2022-10-23T20:29:21;15.60;20.30
1103;DHT22;538;42.654;23.376;2022-10-23T20:32:02;15.50;19.90
1103;DHT22;538;42.654;23.376;2022-10-23T20:34:34;15.40;20.00
1103;DHT22;538;42.654;23.376;2022-10-23T20:37:36;15.40;20.40
1103;DHT22;538;42.654;23.376;2022-10-23T20:40:17;14.70;20.10
1103;DHT22;538;42.654;23.376;2022-10-23T20:43:05;15.20;20.00
1103;DHT22;538;42.654;23.376;2022-10-23T20:46:07;15.10;19.60
1103;DHT22;538;42.654;23.376;2022-10-23T20:52:17;14.10;20.20
1103;DHT22;538;42.654;23.376;2022-10-23T21:08:01;14.60;21.70
1103;DHT22;538;42.654;23.376;2022-10-23T22:17:05;13.90;26.30
